createdAt,value
2023-01-17T00:01:04.907Z,100106.47
2023-01-17T00:04:28.307Z,100107.72
2023-01-17T00:07:53.367Z,100107.63
2023-01-17T00:10:59.787Z,100108.45
2023-01-17T00:14:07.800Z,100113.61
2023-01-17T00:17:13.030Z,100109.84
2023-01-17T00:20:34.855Z,100110.34
2023-01-17T00:23:58.717Z,100111.69
2023-01-17T00:27:21.405Z,100104.23
2023-01-17T00:30:26.951Z,100102.03
2023-01-17T00:33:31.962Z,100103.55
2023-01-17T00:36:37.111Z,100105.26
2023-01-17T00:39:42.178Z,100095.70
2023-01-17T00:42:46.742Z,100095.45
2023-01-17T00:46:10.199Z,100090.41
2023-01-17T00:49:33.350Z,100095.48
2023-01-17T00:52:56.245Z,100096.38
2023-01-17T00:56:20.064Z,100098.08
2023-01-17T00:59:43.221Z,100087.03
2023-01-17T01:03:06.657Z,100083.65
2023-01-17T01:06:29.901Z,100073.24
2023-01-17T01:09:53.455Z,100073.63
2023-01-17T01:13:16.764Z,100072.14
2023-01-17T01:16:40.455Z,100063.19
2023-01-17T01:20:03.737Z,100064.32
2023-01-17T01:23:26.907Z,100065.31
2023-01-17T01:26:49.758Z,100058.92
2023-01-17T01:30:13.586Z,100053.77
2023-01-17T01:33:27.915Z,100058.84
2023-01-17T01:36:33.047Z,100052.39
2023-01-17T01:39:38.106Z,100046.66
2023-01-17T01:42:43.917Z,100041.17
2023-01-17T01:45:44.317Z,100041.19
2023-01-17T01:49:08.865Z,100043.64
2023-01-17T01:52:17.742Z,100032.34
2023-01-17T01:55:35.343Z,100033.09
2023-01-17T01:58:43.366Z,100033.28
2023-01-17T02:01:49.197Z,100028.62
2023-01-17T02:04:55.668Z,100025.36
2023-01-17T02:08:19.383Z,100027.03
2023-01-17T02:11:26.212Z,100020.07
2023-01-17T02:14:35.306Z,100018.06
2023-01-17T02:18:04.366Z,100010.72
2023-01-17T02:21:41.397Z,100015.12
2023-01-17T02:25:16.542Z,100011.45
2023-01-17T02:29:03.008Z,100018.47
2023-01-17T02:32:25.916Z,100013.46
2023-01-17T02:35:41.420Z,100006.88
2023-01-17T02:39:19.412Z,100002.84
2023-01-17T02:42:31.408Z,100002.67
2023-01-17T02:45:36.509Z,99994.83
2023-01-17T02:48:43.705Z,99992.16
2023-01-17T02:52:00.138Z,99990.31
2023-01-17T02:55:26.454Z,99989.44
2023-01-17T02:58:51.597Z,99986.96
2023-01-17T03:02:13.688Z,99997.14
2023-01-17T03:05:42.065Z,99995.82
2023-01-17T03:08:47.082Z,99991.53
2023-01-17T03:11:53.198Z,99989.25
2023-01-17T03:14:59.046Z,99981.33
2023-01-17T03:18:07.071Z,99977.98
2023-01-17T03:21:12.255Z,99977.31
2023-01-17T03:24:17.539Z,99979.18
2023-01-17T03:27:22.904Z,99981.23
2023-01-17T03:30:30.218Z,99980.65
2023-01-17T03:33:35.298Z,99975.73
2023-01-17T03:36:39.909Z,99978.07
2023-01-17T03:39:45.372Z,99964.59
2023-01-17T03:42:52.838Z,99967.75
2023-01-17T03:46:00.789Z,99977.28
2023-01-17T03:49:06.480Z,99974.83
2023-01-17T03:52:12.297Z,99969.84
2023-01-17T03:55:11.163Z,99973.75
2023-01-17T03:58:17.215Z,99968.34
2023-01-17T04:01:23.563Z,99959.05
2023-01-17T04:04:29.190Z,99956.36
2023-01-17T04:07:34.346Z,99961.40
2023-01-17T04:10:40.166Z,99959.17
2023-01-17T04:13:46.340Z,99963.05
2023-01-17T04:16:52.604Z,99968.50
2023-01-17T04:19:59.045Z,99964.56
2023-01-17T04:23:03.872Z,99966.55
2023-01-17T04:26:10.460Z,99971.20
2023-01-17T04:29:16.163Z,99966.91
2023-01-17T04:32:14.501Z,99963.51
2023-01-17T04:35:07.492Z,99969.88
2023-01-17T04:38:13.139Z,99967.17
2023-01-17T04:41:18.584Z,99953.09
2023-01-17T04:44:24.029Z,99955.91
2023-01-17T04:47:28.979Z,99953.36
2023-01-17T04:50:33.715Z,99955.30
2023-01-17T04:53:38.788Z,99950.78
2023-01-17T04:56:43.499Z,99950.55
2023-01-17T04:59:41.422Z,99958.84
2023-01-17T05:02:46.310Z,99943.76
2023-01-17T05:05:52.258Z,99949.50
2023-01-17T05:08:59.948Z,99940.95
2023-01-17T05:12:04.883Z,99933.33
2023-01-17T05:15:10.525Z,99931.86
2023-01-17T05:18:17.056Z,99935.25
2023-01-17T05:21:23.806Z,99923.98
2023-01-17T05:24:29.185Z,99922.58
2023-01-17T05:27:34.637Z,99922.47
2023-01-17T05:30:39.951Z,99929.30
2023-01-17T05:33:46.829Z,99937.16
2023-01-17T05:36:51.219Z,99930.33
2023-01-17T05:39:57.023Z,99928.48
2023-01-17T05:43:04.280Z,99926.30
2023-01-17T05:46:09.924Z,99929.12
2023-01-17T05:49:16.545Z,99935.58
2023-01-17T05:52:22.388Z,99937.54
2023-01-17T05:55:28.381Z,99954.38
2023-01-17T05:58:34.911Z,99948.23
2023-01-17T06:01:40.528Z,99941.09
2023-01-17T06:04:46.375Z,99942.84
2023-01-17T06:07:53.164Z,99939.94
2023-01-17T06:11:00.440Z,99936.78
2023-01-17T06:14:06.092Z,99940.12
2023-01-17T06:17:12.407Z,99922.58
2023-01-17T06:20:18.836Z,99910.08
2023-01-17T06:23:26.020Z,99899.78
2023-01-17T06:26:32.529Z,99904.19
2023-01-17T06:29:37.777Z,99910.28
2023-01-17T06:32:43.102Z,99898.20
2023-01-17T06:35:50.104Z,99890.20
2023-01-17T06:38:56.487Z,99878.55
2023-01-17T06:42:03.236Z,99894.14
2023-01-17T06:45:09.279Z,99893.38
2023-01-17T06:48:15.924Z,99898.30
2023-01-17T06:51:21.047Z,99894.35
2023-01-17T06:54:28.520Z,99901.59
2023-01-17T06:57:34.248Z,99907.28
2023-01-17T07:00:42.781Z,99902.84
2023-01-17T07:03:47.486Z,99905.58
2023-01-17T07:06:47.265Z,99902.14
2023-01-17T07:09:40.490Z,99895.17
2023-01-17T07:12:46.654Z,99893.73
2023-01-17T07:15:52.478Z,99916.25
2023-01-17T07:19:00.181Z,99909.47
2023-01-17T07:22:08.670Z,99902.45
2023-01-17T07:25:13.825Z,99907.74
2023-01-17T07:28:18.474Z,99898.98
2023-01-17T07:31:24.116Z,99899.24
2023-01-17T07:34:30.237Z,99892.27
2023-01-17T07:37:36.818Z,99890.34
2023-01-17T07:40:47.006Z,99896.50
2023-01-17T07:43:51.547Z,99884.83
2023-01-17T07:46:57.479Z,99874.00
2023-01-17T07:50:07.074Z,99869.08
2023-01-17T07:53:13.133Z,99871.28
2023-01-17T07:56:20.525Z,99868.72
2023-01-17T07:59:27.409Z,99865.16
2023-01-17T08:02:35.817Z,99867.34
2023-01-17T08:05:45.110Z,99875.94
2023-01-17T08:08:51.471Z,99884.94
2023-01-17T08:11:59.864Z,99884.16
2023-01-17T08:15:05.532Z,99889.41
2023-01-17T08:18:12.327Z,99891.61
2023-01-17T08:21:17.393Z,99893.30
2023-01-17T08:24:28.193Z,99891.28
2023-01-17T08:27:37.237Z,99895.82
2023-01-17T08:30:44.271Z,99885.83
2023-01-17T08:33:49.528Z,99894.09
2023-01-17T08:36:54.584Z,99902.05
2023-01-17T08:40:01.178Z,99899.09
2023-01-17T08:43:11.436Z,99903.33
2023-01-17T08:46:16.969Z,99896.05
2023-01-17T08:49:23.624Z,99897.46
2023-01-17T08:52:34.238Z,99896.91
2023-01-17T08:55:40.694Z,99889.34
2023-01-17T08:58:48.152Z,99882.80
2023-01-17T09:01:54.076Z,99883.86
2023-01-17T09:04:58.081Z,99876.02
2023-01-17T09:08:04.281Z,99870.91
2023-01-17T09:11:10.069Z,99871.73
2023-01-17T09:14:16.215Z,99867.38
2023-01-17T09:17:23.588Z,99851.91
2023-01-17T09:20:30.648Z,99856.23
2023-01-17T09:23:41.023Z,99854.88
2023-01-17T09:26:46.950Z,99854.11
2023-01-17T09:29:52.857Z,99852.62
2023-01-17T09:33:01.063Z,99852.90
2023-01-17T09:36:06.695Z,99851.77
2023-01-17T09:39:15.350Z,99855.14
2023-01-17T09:42:38.369Z,99849.10
2023-01-17T09:45:46.484Z,99844.69
2023-01-17T09:48:52.817Z,99840.11
2023-01-17T09:51:58.630Z,99827.38
2023-01-17T09:55:07.887Z,99835.36
2023-01-17T09:58:22.639Z,99822.77
2023-01-17T10:01:40.129Z,99831.59
2023-01-17T10:05:07.030Z,99849.51
2023-01-17T10:08:32.615Z,99845.41
2023-01-17T10:11:54.640Z,99831.63
2023-01-17T10:15:25.890Z,99833.22
2023-01-17T10:18:58.512Z,99831.77
2023-01-17T10:22:38.541Z,99814.11
2023-01-17T10:25:57.135Z,99810.48
2023-01-17T10:29:03.678Z,99812.59
2023-01-17T10:32:14.162Z,99814.66
2023-01-17T10:35:24.491Z,99804.36
2023-01-17T10:38:29.260Z,99803.22
2023-01-17T10:41:50.463Z,99811.16
2023-01-17T10:45:00.925Z,99811.84
2023-01-17T10:48:16.354Z,99802.06
2023-01-17T10:51:56.303Z,99793.44
2023-01-17T10:55:24.728Z,99788.55
2023-01-17T10:58:32.974Z,99787.39
2023-01-17T11:01:39.793Z,99782.80
2023-01-17T11:04:56.141Z,99786.54
2023-01-17T11:08:25.315Z,99773.66
2023-01-17T11:11:31.439Z,99759.58
2023-01-17T11:14:38.468Z,99764.56
2023-01-17T11:17:45.296Z,99753.98
2023-01-17T11:20:53.551Z,99756.73
2023-01-17T11:24:03.971Z,99749.33
2023-01-17T11:27:08.865Z,99749.39
2023-01-17T11:30:23.045Z,99747.47
2023-01-17T11:33:42.138Z,99730.41
2023-01-17T11:36:48.440Z,99739.11
2023-01-17T11:40:00.226Z,99732.16
2023-01-17T11:43:22.639Z,99715.20
2023-01-17T11:46:32.003Z,99714.69
2023-01-17T11:49:40.873Z,99713.14
2023-01-17T11:52:48.363Z,99728.60
2023-01-17T11:55:57.912Z,99733.52
2023-01-17T11:59:03.513Z,99732.52
2023-01-17T12:02:38.910Z,99716.87
2023-01-17T12:06:07.675Z,99722.31
2023-01-17T12:09:29.076Z,99725.20
2023-01-17T12:13:11.209Z,99721.14
2023-01-17T12:16:42.830Z,99721.30
2023-01-17T12:20:18.426Z,99718.41
2023-01-17T12:24:03.156Z,99717.41
2023-01-17T12:27:36.978Z,99716.70
2023-01-17T12:31:09.808Z,99725.73
2023-01-17T12:34:45.497Z,99734.20
2023-01-17T12:38:05.007Z,99733.83
2023-01-17T12:41:19.964Z,99728.58
2023-01-17T12:44:25.418Z,99728.91
2023-01-17T12:47:30.743Z,99721.59
2023-01-17T12:50:49.117Z,99722.61
2023-01-17T12:54:25.991Z,99733.17
2023-01-17T12:57:42.892Z,99731.46
2023-01-17T13:00:51.297Z,99725.00
2023-01-17T13:04:21.099Z,99728.04
2023-01-17T13:07:34.090Z,99718.37
2023-01-17T13:10:50.750Z,99725.13
2023-01-17T13:13:59.079Z,99725.97
2023-01-17T13:17:14.907Z,99722.41
2023-01-17T13:20:43.451Z,99725.23
2023-01-17T13:24:13.313Z,99737.33
2023-01-17T13:27:33.741Z,99741.05
2023-01-17T13:31:22.795Z,99740.05
2023-01-17T13:35:03.734Z,99742.22
2023-01-17T13:38:49.151Z,99753.97
2023-01-17T13:42:04.315Z,99746.00
2023-01-17T13:45:11.126Z,99750.88
2023-01-17T13:48:29.899Z,99750.17
2023-01-17T13:51:35.314Z,99745.13
2023-01-17T13:54:47.931Z,99749.14
2023-01-17T13:57:55.795Z,99749.33
2023-01-17T14:01:03.449Z,99751.66
2023-01-17T14:04:14.336Z,99751.33
2023-01-17T14:07:24.586Z,99745.70
2023-01-17T14:10:59.260Z,99738.57
2023-01-17T14:14:04.682Z,99740.81
2023-01-17T14:17:10.353Z,99736.94
2023-01-17T14:20:27.893Z,99728.21
2023-01-17T14:23:42.919Z,99729.57
2023-01-17T14:26:58.434Z,99728.90
2023-01-17T14:30:14.794Z,99729.90
2023-01-17T14:33:25.864Z,99727.84
2023-01-17T14:36:46.791Z,99737.34
2023-01-17T14:40:00.212Z,99734.98
2023-01-17T14:43:30.376Z,99742.27
2023-01-17T14:46:45.740Z,99742.35
2023-01-17T14:49:52.024Z,99742.30
2023-01-17T14:52:57.207Z,99737.94
2023-01-17T14:56:09.872Z,99731.28
2023-01-17T14:59:24.783Z,99726.69
2023-01-17T15:02:31.246Z,99720.77
2023-01-17T15:05:38.612Z,99722.64
2023-01-17T15:08:48.903Z,99722.95
2023-01-17T15:11:54.744Z,99728.07
2023-01-17T15:15:02.615Z,99740.95
2023-01-17T15:18:22.093Z,99734.73
2023-01-17T15:21:31.658Z,99737.98
2023-01-17T15:24:44.230Z,99736.80
2023-01-17T15:27:49.684Z,99742.25
2023-01-17T15:31:41.097Z,99743.97
2023-01-17T15:34:51.947Z,99743.65
2023-01-17T15:37:57.791Z,99742.66
2023-01-17T15:41:03.833Z,99737.76
2023-01-17T15:44:09.875Z,99745.58
2023-01-17T15:47:15.267Z,99746.42
2023-01-17T15:50:44.817Z,99745.92
2023-01-17T15:53:52.614Z,99746.40
2023-01-17T15:56:59.356Z,99738.93
2023-01-17T16:00:14.575Z,99739.42
2023-01-17T16:03:39.267Z,99740.78
2023-01-17T16:06:55.326Z,99721.05
2023-01-17T16:10:00.561Z,99733.91
2023-01-17T16:13:08.884Z,99731.24
2023-01-17T16:16:36.927Z,99738.85
2023-01-17T16:19:42.553Z,99730.39
2023-01-17T16:22:48.608Z,99733.45
2023-01-17T16:25:54.878Z,99739.55
2023-01-17T16:28:59.618Z,99732.78
2023-01-17T16:32:05.847Z,99725.71
2023-01-17T16:35:11.660Z,99725.71
2023-01-17T16:38:24.415Z,99736.86
2023-01-17T16:41:31.498Z,99733.83
2023-01-17T16:44:37.197Z,99731.98
2023-01-17T16:47:43.478Z,99737.91
2023-01-17T16:50:48.623Z,99735.70
2023-01-17T16:53:54.198Z,99743.38
2023-01-17T16:56:59.813Z,99736.89
2023-01-17T17:00:04.915Z,99740.13
2023-01-17T17:03:10.841Z,99733.21
2023-01-17T17:06:16.429Z,99737.95
2023-01-17T17:09:23.007Z,99733.72
2023-01-17T17:12:28.592Z,99744.59
2023-01-17T17:15:33.928Z,99738.11
2023-01-17T17:18:40.952Z,99732.00
2023-01-17T17:21:45.859Z,99739.41
2023-01-17T17:24:52.125Z,99748.43
2023-01-17T17:27:58.636Z,99744.36
2023-01-17T17:31:04.440Z,99744.69
2023-01-17T17:34:14.538Z,99742.84
2023-01-17T17:37:19.453Z,99743.98
2023-01-17T17:40:26.615Z,99734.47
2023-01-17T17:43:32.469Z,99732.28
2023-01-17T17:46:40.296Z,99742.36
2023-01-17T17:49:45.763Z,99745.70
2023-01-17T17:52:51.108Z,99731.11
2023-01-17T17:55:58.677Z,99729.06
2023-01-17T17:59:03.982Z,99732.97
2023-01-17T18:02:10.477Z,99748.75
2023-01-17T18:05:16.300Z,99737.61
2023-01-17T18:08:17.833Z,99733.81
2023-01-17T18:11:11.540Z,99731.24
2023-01-17T18:14:06.238Z,99740.61
2023-01-17T18:16:59.764Z,99728.72
2023-01-17T18:20:00.117Z,99755.20
2023-01-17T18:22:59.151Z,99746.70
2023-01-17T18:26:05.150Z,99751.13
2023-01-17T18:29:09.998Z,99745.38
2023-01-17T18:32:16.509Z,99754.20
2023-01-17T18:35:22.294Z,99749.16
2023-01-17T18:38:28.472Z,99743.20
2023-01-17T18:41:43.470Z,99751.72
2023-01-17T18:44:49.565Z,99757.81
2023-01-17T18:47:56.369Z,99755.23
2023-01-17T18:51:14.874Z,99758.64
2023-01-17T18:54:21.970Z,99762.24
2023-01-17T18:57:28.596Z,99753.22
2023-01-17T19:00:37.881Z,99748.06
2023-01-17T19:03:43.495Z,99738.44
2023-01-17T19:06:52.692Z,99723.10
2023-01-17T19:09:58.484Z,99742.47
2023-01-17T19:13:04.252Z,99731.06
2023-01-17T19:16:11.803Z,99726.02
2023-01-17T19:19:19.669Z,99721.05
2023-01-17T19:22:25.157Z,99720.48
2023-01-17T19:25:33.056Z,99732.74
2023-01-17T19:28:37.933Z,99741.41
2023-01-17T19:31:46.202Z,99732.70
2023-01-17T19:34:51.405Z,99745.71
2023-01-17T19:38:04.109Z,99759.16
2023-01-17T19:41:09.947Z,99763.09
2023-01-17T19:44:18.404Z,99762.59
2023-01-17T19:47:23.006Z,99764.80
2023-01-17T19:50:28.960Z,99766.48
2023-01-17T19:53:33.577Z,99764.45
2023-01-17T19:56:33.991Z,99757.65
2023-01-17T19:59:40.693Z,99759.53
2023-01-17T20:02:46.575Z,99771.55
2023-01-17T20:05:54.182Z,99771.19
2023-01-17T20:09:00.332Z,99777.91
2023-01-17T20:12:06.277Z,99771.94
2023-01-17T20:15:12.750Z,99769.22
2023-01-17T20:18:19.882Z,99771.25
2023-01-17T20:21:38.520Z,99777.06
2023-01-17T20:24:44.036Z,99781.73
2023-01-17T20:27:49.295Z,99787.20
2023-01-17T20:30:54.535Z,99795.00
2023-01-17T20:34:01.159Z,99784.11
2023-01-17T20:37:09.421Z,99768.72
2023-01-17T20:40:15.115Z,99769.76
2023-01-17T20:43:21.374Z,99783.37
2023-01-17T20:46:26.326Z,99768.91
2023-01-17T20:49:34.098Z,99780.13
2023-01-17T20:52:38.690Z,99767.38
2023-01-17T20:55:37.293Z,99758.38
2023-01-17T20:58:22.984Z,99739.48
2023-01-17T21:01:17.855Z,99740.34
2023-01-17T21:04:10.603Z,99736.09
2023-01-17T21:07:16.987Z,99745.41
2023-01-17T21:10:23.235Z,99744.25
2023-01-17T21:13:29.516Z,99747.42
2023-01-17T21:16:36.660Z,99742.03
2023-01-17T21:19:41.668Z,99753.23
2023-01-17T21:22:47.678Z,99750.88
2023-01-17T21:25:55.519Z,99748.17
2023-01-17T21:29:01.075Z,99743.40
2023-01-17T21:32:06.911Z,99746.46
2023-01-17T21:35:17.358Z,99750.86
2023-01-17T21:38:22.719Z,99749.55
2023-01-17T21:41:28.745Z,99759.73
2023-01-17T21:44:36.788Z,99756.67
2023-01-17T21:47:42.787Z,99759.05
2023-01-17T21:50:47.536Z,99763.13
2023-01-17T21:53:54.303Z,99767.53
2023-01-17T21:57:17.880Z,99770.61
2023-01-17T22:00:26.205Z,99769.94
2023-01-17T22:03:31.975Z,99766.88
2023-01-17T22:06:47.555Z,99769.73
2023-01-17T22:09:54.365Z,99769.59
2023-01-17T22:13:00.993Z,99765.52
2023-01-17T22:16:15.459Z,99760.27
2023-01-17T22:19:20.779Z,99756.67
2023-01-17T22:22:26.373Z,99759.92
2023-01-17T22:25:32.923Z,99762.80
2023-01-17T22:28:38.378Z,99759.56
2023-01-17T22:31:43.819Z,99768.09
2023-01-17T22:34:49.871Z,99755.14
2023-01-17T22:37:55.609Z,99756.66
2023-01-17T22:41:01.940Z,99762.41
2023-01-17T22:44:13.583Z,99751.92
2023-01-17T22:47:18.662Z,99749.88
2023-01-17T22:50:24.614Z,99758.56
2023-01-17T22:53:29.769Z,99752.75
2023-01-17T22:56:40.957Z,99751.93
2023-01-17T22:59:47.028Z,99750.21
2023-01-17T23:02:52.603Z,99755.99
2023-01-17T23:05:57.682Z,99748.34
2023-01-17T23:09:06.729Z,99754.66
2023-01-17T23:12:14.461Z,99755.66
2023-01-17T23:15:38.028Z,99752.25
2023-01-17T23:19:01.747Z,99753.62
2023-01-17T23:22:28.488Z,99749.87
2023-01-17T23:25:33.907Z,99746.81
2023-01-17T23:28:39.683Z,99749.03
2023-01-17T23:31:44.713Z,99758.89
2023-01-17T23:34:50.390Z,99745.45
2023-01-17T23:38:13.667Z,99741.02
2023-01-17T23:41:39.518Z,99739.32
2023-01-17T23:44:44.496Z,99743.23
2023-01-17T23:47:50.142Z,99747.16
2023-01-17T23:51:35.598Z,99736.45
2023-01-17T23:54:41.485Z,99734.91
2023-01-17T23:57:46.811Z,99733.03
